Flight Track Log - Related Links

Times and Time Zones

All times are in EDT time to prevent confusion due to time zone crossing. See the RAX81 flight status page for this flight to view local times or setup timezone preferences in your user account.

Time Position Orientation Groundspeed Altitude Reporting Facility
EDT Latitude Longitude Course Direction KTS MPH feet Rate Location/Type
Fri 04:30:44 AM 39.2333 -76.6667 North 144 166 2,600  Level Potomac TRACON
Fri 04:31:44 AM 39.2500 -76.6167 67° East 158 182 4,300 1,250 Climbing Potomac TRACON
Fri 04:32:44 AM 39.2667 -76.5500 72° East 198 228 5,100 400 Climbing Potomac TRACON
Fri 04:33:44 AM 39.3000 -76.4833 57° Northeast 236 272 5,100  Level Potomac TRACON
Fri 04:34:44 AM 39.3333 -76.4167 57° Northeast 242 278 5,100  Level Potomac TRACON
Fri 04:35:44 AM 39.3833 -76.3333 52° Northeast 244 281 5,100  Level Potomac TRACON
Fri 04:36:44 AM 39.4167 -76.2667 57° Northeast 244 281 5,100  Level Potomac TRACON
Fri 04:37:44 AM 39.4500 -76.1833 63° Northeast 244 281 5,100 -37 Level Potomac TRACON
Fri 04:39:26 AM 39.5000 -76.0500 64° Northeast 245 282 5,000 -37 Descending Philadelphia TRACON
Fri 04:40:26 AM 39.5000 -75.9667 90° East 249 287 5,000  Level Philadelphia TRACON
Fri 04:41:26 AM 39.5167 -75.8833 75° East 250 288 5,000  Level Philadelphia TRACON
Fri 04:42:26 AM 39.5167 -75.7833 90° East 250 288 5,000  Level Philadelphia TRACON
Fri 04:43:26 AM 39.5333 -75.7000 75° East 251 289 5,000  Level Philadelphia TRACON
Fri 04:44:26 AM 39.5333 -75.6167 90° East 251 289 5,000  Level Philadelphia TRACON
Fri 04:45:26 AM 39.5333 -75.5167 90° East 251 289 5,000  Level Philadelphia TRACON
Fri 04:46:26 AM 39.5500 -75.4333 75° East 251 289 5,000 -250 Level Philadelphia TRACON
Fri 04:47:26 AM 39.5833 -75.3500 63° Northeast 244 281 4,500 -550 Descending Philadelphia TRACON
Fri 04:48:26 AM 39.6167 -75.2833 57° Northeast 245 282 3,900 -250 Descending Philadelphia TRACON
Fri 04:49:26 AM 39.6667 -75.2000 52° Northeast 236 272 4,000 -100 Climbing Philadelphia TRACON
Fri 04:50:26 AM 39.7000 -75.1333 57° Northeast 236 272 3,700 -550 Descending Philadelphia TRACON
Fri 04:51:26 AM 39.7500 -75.0833 38° Northeast 244 281 2,900 -800 Descending Philadelphia TRACON
Fri 04:52:26 AM 39.8000 -75.1000 346° North 212 244 2,100 -678 Descending Philadelphia TRACON
Fri 04:53:21 AM 39.8500 -75.1333 333° Northwest 207 238 1,600 -574 Descending Philadelphia TRACON
Fri 04:54:21 AM 39.8833 -75.1667 323° Northwest 125 144 1,000 -700 Descending Philadelphia TRACON
Fri 04:55:21 AM 39.8833 -75.2167 270° West 105 121 200 -800 Descending Philadelphia TRACON
Fri 04:57:00 AM 39.8722 -75.2409 159° South  Level Estimated

Login

Don't have an account? Register now (free) for customized features, flight alerts, and more!